createdAt,value
2022-12-23T18:20:35.429Z,100896.78
2022-12-23T18:23:04.164Z,100883.44
2022-12-23T18:25:33.100Z,100863.63
2022-12-23T18:28:01.580Z,100849.19
2022-12-23T18:30:29.966Z,100860.78
2022-12-23T18:32:58.254Z,100843.94
2022-12-23T18:35:46.603Z,100842.25
2022-12-23T18:38:16.038Z,100857.44
2022-12-23T18:40:45.329Z,100854.91
2022-12-23T18:43:24.443Z,100861.34
2022-12-23T18:45:54.245Z,100856.66
2022-12-23T18:48:22.813Z,100837.69
2022-12-23T18:50:51.476Z,100836.63
2022-12-23T18:53:24.910Z,100830.97
2022-12-23T18:55:54.623Z,100817.09
2022-12-23T18:58:23.909Z,100822.97
2022-12-23T19:00:53.466Z,100817.94
2022-12-23T19:03:27.180Z,100829.59
2022-12-23T19:05:57.345Z,100833.97
2022-12-23T19:08:27.979Z,100858.75
2022-12-23T19:10:56.820Z,100865.56
2022-12-23T19:13:25.606Z,100868.00
2022-12-23T19:15:53.753Z,100883.66
2022-12-23T19:18:22.485Z,100891.47
2022-12-23T19:20:51.210Z,100885.00
2022-12-23T19:23:19.694Z,100895.56
2022-12-23T19:25:54.840Z,100909.66
2022-12-23T19:28:23.694Z,100910.53
2022-12-23T19:30:52.025Z,100894.84
2022-12-23T19:33:20.261Z,100887.56
2022-12-23T19:35:48.490Z,100878.81
2022-12-23T19:38:16.395Z,100864.22
2022-12-23T19:40:44.696Z,100870.28
2022-12-23T19:43:13.172Z,100866.31
2022-12-23T19:45:41.977Z,100854.03
2022-12-23T19:48:10.237Z,100864.84
2022-12-23T19:50:38.460Z,100876.28
2022-12-23T19:53:06.517Z,100865.38
2022-12-23T19:55:35.027Z,100869.56
2022-12-23T19:58:03.141Z,100864.13
2022-12-23T20:00:31.553Z,100870.66
2022-12-23T20:02:59.997Z,100865.16
2022-12-23T20:05:28.972Z,100882.31
2022-12-23T20:07:57.677Z,100890.59
2022-12-23T20:10:25.779Z,100876.06
2022-12-23T20:12:53.862Z,100870.72
2022-12-23T20:15:22.165Z,100868.91
2022-12-23T20:17:50.356Z,100855.75
2022-12-23T20:20:18.764Z,100866.69
2022-12-23T20:22:47.096Z,100885.59
2022-12-23T20:25:15.372Z,100890.56
2022-12-23T20:27:44.168Z,100893.69
2022-12-23T20:30:12.757Z,100896.06
2022-12-23T20:32:41.434Z,100905.44
2022-12-23T20:35:09.994Z,100893.25
2022-12-23T20:37:38.206Z,100898.50
2022-12-23T20:40:08.032Z,100912.75
2022-12-23T20:42:36.869Z,100936.09
2022-12-23T20:45:05.358Z,100930.69
2022-12-23T20:47:33.641Z,100935.69
2022-12-23T20:50:01.881Z,100953.94
2022-12-23T20:52:30.204Z,100977.63
2022-12-23T20:54:59.108Z,100980.81
2022-12-23T20:57:28.102Z,100982.53
2022-12-23T20:59:56.863Z,100942.38
2022-12-23T21:02:25.573Z,100931.81
2022-12-23T21:04:53.978Z,100954.53
2022-12-23T21:07:22.101Z,100964.16
2022-12-23T21:09:50.980Z,100963.94
2022-12-23T21:12:19.393Z,100975.25
2022-12-23T21:14:47.626Z,100972.50
2022-12-23T21:17:15.819Z,100955.38
2022-12-23T21:19:44.472Z,100954.53
2022-12-23T21:22:12.875Z,100936.44
2022-12-23T21:24:41.121Z,100928.31
2022-12-23T21:27:09.377Z,100914.25
2022-12-23T21:29:38.040Z,100922.25
2022-12-23T21:32:06.305Z,100921.41
2022-12-23T21:34:34.497Z,100928.31
2022-12-23T21:37:02.549Z,100940.72
2022-12-23T21:39:31.196Z,100939.88
2022-12-23T21:41:59.318Z,100946.28
2022-12-23T21:44:27.954Z,100945.44
2022-12-23T21:46:56.218Z,100947.13
2022-12-23T21:49:24.367Z,100931.97
2022-12-23T21:51:53.680Z,100937.31
2022-12-23T21:54:22.464Z,100932.19
2022-12-23T21:56:50.583Z,100938.28
2022-12-23T21:59:18.694Z,100935.59
2022-12-23T22:01:46.905Z,100928.44
2022-12-23T22:04:15.082Z,100908.41
2022-12-23T22:06:45.164Z,100914.50
2022-12-23T22:09:16.567Z,100914.97
2022-12-23T22:11:46.314Z,100885.22
2022-12-23T22:14:16.931Z,100873.22
2022-12-23T22:16:45.346Z,100862.44
2022-12-23T22:19:17.511Z,100878.44
2022-12-23T22:21:46.274Z,100880.91
2022-12-23T22:24:15.287Z,100870.84
2022-12-23T22:26:43.842Z,100849.34
2022-12-23T22:29:12.399Z,100873.84
2022-12-23T22:31:53.448Z,100852.25
2022-12-23T22:34:23.123Z,100814.16
2022-12-23T22:36:51.532Z,100819.94
2022-12-23T22:39:22.107Z,100817.03
2022-12-23T22:41:51.561Z,100795.91
2022-12-23T22:44:21.081Z,100798.09
2022-12-23T22:46:49.775Z,100786.31
2022-12-23T22:49:18.495Z,100800.25
2022-12-23T22:51:46.591Z,100843.31
2022-12-23T22:54:15.027Z,100829.41
2022-12-23T22:56:46.086Z,100848.03
2022-12-23T22:59:23.547Z,100865.34
2022-12-23T23:01:53.547Z,100853.50
2022-12-23T23:04:21.789Z,100862.47
2022-12-23T23:06:52.993Z,100881.53
2022-12-23T23:09:22.385Z,100876.59
2022-12-23T23:11:51.167Z,100872.72
2022-12-23T23:14:20.248Z,100868.88
2022-12-23T23:16:48.588Z,100856.25
2022-12-23T23:19:20.865Z,100846.41
2022-12-23T23:21:49.675Z,100833.06
2022-12-23T23:24:17.870Z,100817.81
2022-12-23T23:26:46.514Z,100819.72
2022-12-23T23:29:15.618Z,100830.41
2022-12-23T23:31:44.934Z,100825.69
2022-12-23T23:34:14.137Z,100835.50
2022-12-23T23:36:42.661Z,100864.66
2022-12-23T23:39:14.177Z,100887.09
2022-12-23T23:41:42.766Z,100880.28
2022-12-23T23:44:11.637Z,100883.78
2022-12-23T23:46:40.379Z,100881.13
2022-12-23T23:49:09.274Z,100872.03
2022-12-23T23:51:38.078Z,100867.53
2022-12-23T23:54:07.054Z,100880.91
2022-12-23T23:56:38.823Z,100876.75
2022-12-23T23:59:09.003Z,100867.91
